sensor_id;sensor_type;location;lat;lon;timestamp;temperature;humidity
8099;DHT22;4092;47.876;9.372;2023-12-07T00:02:00;1.00;99.90
8099;DHT22;4092;47.876;9.372;2023-12-07T00:04:27;0.90;99.90
8099;DHT22;4092;47.876;9.372;2023-12-07T00:06:55;0.90;99.90
8099;DHT22;4092;47.876;9.372;2023-12-07T00:09:22;0.80;99.90
8099;DHT22;4092;47.876;9.372;2023-12-07T00:11:49;0.80;99.90
8099;DHT22;4092;47.876;9.372;2023-12-07T00:14:16;0.80;99.90
8099;DHT22;4092;47.876;9.372;2023-12-07T00:16:43;0.80;99.90
8099;DHT22;4092;47.876;9.372;2023-12-07T00:19:10;0.80;99.90
8099;DHT22;4092;47.876;9.372;2023-12-07T00:21:37;0.80;99.90
8099;DHT22;4092;47.876;9.372;2023-12-07T00:24:06;0.80;99.90
8099;DHT22;4092;47.876;9.372;2023-12-07T00:26:34;0.90;99.90
8099;DHT22;4092;47.876;9.372;2023-12-07T00:29:01;0.90;99.90
8099;DHT22;4092;47.876;9.372;2023-12-07T00:31:28;0.80;99.90
8099;DHT22;4092;47.876;9.372;2023-12-07T00:33:55;0.80;99.90
8099;DHT22;4092;47.876;9.372;2023-12-07T00:36:23;0.80;99.90
8099;DHT22;4092;47.876;9.372;2023-12-07T00:38:50;0.70;99.90
8099;DHT22;4092;47.876;9.372;2023-12-07T00:41:18;0.70;99.90
8099;DHT22;4092;47.876;9.372;2023-12-07T00:43:45;0.70;99.90
8099;DHT22;4092;47.876;9.372;2023-12-07T00:46:13;0.70;99.90
8099;DHT22;4092;47.876;9.372;2023-12-07T00:48:40;0.60;99.90
8099;DHT22;4092;47.876;9.372;2023-12-07T00:51:07;0.60;99.90
8099;DHT22;4092;47.876;9.372;2023-12-07T00:53:34;0.50;99.90
8099;DHT22;4092;47.876;9.372;2023-12-07T00:56:02;0.50;99.90
8099;DHT22;4092;47.876;9.372;2023-12-07T00:58:31;0.50;99.90
8099;DHT22;4092;47.876;9.372;2023-12-07T01:00:58;0.50;99.90
8099;DHT22;4092;47.876;9.372;2023-12-07T01:03:25;0.40;99.90
8099;DHT22;4092;47.876;9.372;2023-12-07T01:05:52;0.50;99.90
8099;DHT22;4092;47.876;9.372;2023-12-07T01:08:20;0.40;99.90
8099;DHT22;4092;47.876;9.372;2023-12-07T01:10:47;0.40;99.90
8099;DHT22;4092;47.876;9.372;2023-12-07T01:13:14;0.40;99.90
8099;DHT22;4092;47.876;9.372;2023-12-07T01:15:43;0.40;99.90
8099;DHT22;4092;47.876;9.372;2023-12-07T01:18:09;0.40;99.90
8099;DHT22;4092;47.876;9.372;2023-12-07T01:20:36;0.40;99.90
8099;DHT22;4092;47.876;9.372;2023-12-07T01:23:03;0.40;99.90
8099;DHT22;4092;47.876;9.372;2023-12-07T01:25:31;0.40;99.90
8099;DHT22;4092;47.876;9.372;2023-12-07T01:27:58;0.40;99.90
8099;DHT22;4092;47.876;9.372;2023-12-07T01:30:25;0.40;99.90
8099;DHT22;4092;47.876;9.372;2023-12-07T01:32:54;0.40;99.90
8099;DHT22;4092;47.876;9.372;2023-12-07T01:35:22;0.40;99.90
8099;DHT22;4092;47.876;9.372;2023-12-07T01:37:49;0.40;99.90
8099;DHT22;4092;47.876;9.372;2023-12-07T01:40:16;0.40;99.90
8099;DHT22;4092;47.876;9.372;2023-12-07T01:42:49;0.50;99.90
8099;DHT22;4092;47.876;9.372;2023-12-07T01:45:16;0.50;99.90
8099;DHT22;4092;47.876;9.372;2023-12-07T01:47:44;0.50;99.90
8099;DHT22;4092;47.876;9.372;2023-12-07T01:50:13;0.50;99.90
8099;DHT22;4092;47.876;9.372;2023-12-07T01:52:45;0.60;99.90
8099;DHT22;4092;47.876;9.372;2023-12-07T01:55:14;0.50;99.90
8099;DHT22;4092;47.876;9.372;2023-12-07T01:57:42;0.50;99.90
8099;DHT22;4092;47.876;9.372;2023-12-07T02:00:11;0.50;99.90
8099;DHT22;4092;47.876;9.372;2023-12-07T02:02:38;0.50;99.90
8099;DHT22;4092;47.876;9.372;2023-12-07T02:05:06;0.40;99.90
8099;DHT22;4092;47.876;9.372;2023-12-07T02:07:35;0.40;99.90
8099;DHT22;4092;47.876;9.372;2023-12-07T02:10:02;0.40;99.90
8099;DHT22;4092;47.876;9.372;2023-12-07T02:12:30;0.30;99.90
8099;DHT22;4092;47.876;9.372;2023-12-07T02:14:57;0.40;99.90
8099;DHT22;4092;47.876;9.372;2023-12-07T02:17:28;0.40;99.90
8099;DHT22;4092;47.876;9.372;2023-12-07T02:20:05;0.30;99.90
8099;DHT22;4092;47.876;9.372;2023-12-07T02:22:40;0.30;99.90
8099;DHT22;4092;47.876;9.372;2023-12-07T02:25:10;0.30;99.90
8099;DHT22;4092;47.876;9.372;2023-12-07T02:27:40;0.30;99.90
8099;DHT22;4092;47.876;9.372;2023-12-07T02:30:08;0.30;99.90
8099;DHT22;4092;47.876;9.372;2023-12-07T02:32:37;0.30;99.90
8099;DHT22;4092;47.876;9.372;2023-12-07T02:35:05;0.30;99.90
8099;DHT22;4092;47.876;9.372;2023-12-07T02:37:36;0.20;99.90
8099;DHT22;4092;47.876;9.372;2023-12-07T02:40:06;0.30;99.90
8099;DHT22;4092;47.876;9.372;2023-12-07T02:42:38;0.30;99.90
8099;DHT22;4092;47.876;9.372;2023-12-07T02:45:07;0.30;99.90
8099;DHT22;4092;47.876;9.372;2023-12-07T02:47:35;0.30;99.90
8099;DHT22;4092;47.876;9.372;2023-12-07T02:50:02;0.30;99.90
8099;DHT22;4092;47.876;9.372;2023-12-07T02:52:29;0.30;99.90
8099;DHT22;4092;47.876;9.372;2023-12-07T02:54:57;0.30;99.90
8099;DHT22;4092;47.876;9.372;2023-12-07T02:57:24;0.30;99.90
8099;DHT22;4092;47.876;9.372;2023-12-07T02:59:53;0.30;99.90
8099;DHT22;4092;47.876;9.372;2023-12-07T03:02:21;0.30;99.90
8099;DHT22;4092;47.876;9.372;2023-12-07T03:04:49;0.20;99.90
8099;DHT22;4092;47.876;9.372;2023-12-07T03:07:16;0.20;99.90
8099;DHT22;4092;47.876;9.372;2023-12-07T03:09:44;0.10;99.90
8099;DHT22;4092;47.876;9.372;2023-12-07T03:12:11;0.10;99.90
8099;DHT22;4092;47.876;9.372;2023-12-07T03:14:38;0.10;99.90
8099;DHT22;4092;47.876;9.372;2023-12-07T03:17:07;0.00;99.90
8099;DHT22;4092;47.876;9.372;2023-12-07T03:19:37;-0.10;99.90
8099;DHT22;4092;47.876;9.372;2023-12-07T03:22:04;-0.10;99.90
8099;DHT22;4092;47.876;9.372;2023-12-07T03:24:34;-0.10;99.90
8099;DHT22;4092;47.876;9.372;2023-12-07T03:27:01;-0.20;99.90
8099;DHT22;4092;47.876;9.372;2023-12-07T03:29:28;-0.20;99.90
8099;DHT22;4092;47.876;9.372;2023-12-07T03:31:55;-0.30;99.90
8099;DHT22;4092;47.876;9.372;2023-12-07T03:34:24;-0.30;99.90
8099;DHT22;4092;47.876;9.372;2023-12-07T03:36:50;-0.30;99.90
8099;DHT22;4092;47.876;9.372;2023-12-07T03:39:18;-0.30;99.90
8099;DHT22;4092;47.876;9.372;2023-12-07T03:41:47;-0.30;99.90
8099;DHT22;4092;47.876;9.372;2023-12-07T03:44:14;-0.30;99.90
8099;DHT22;4092;47.876;9.372;2023-12-07T03:46:41;-0.30;99.90
8099;DHT22;4092;47.876;9.372;2023-12-07T03:49:08;-0.30;99.90
8099;DHT22;4092;47.876;9.372;2023-12-07T03:51:38;-0.30;99.90
8099;DHT22;4092;47.876;9.372;2023-12-07T03:54:05;-0.30;99.90
8099;DHT22;4092;47.876;9.372;2023-12-07T03:56:33;-0.30;99.90
8099;DHT22;4092;47.876;9.372;2023-12-07T03:59:00;-0.30;99.90
8099;DHT22;4092;47.876;9.372;2023-12-07T04:01:29;-0.30;99.90
8099;DHT22;4092;47.876;9.372;2023-12-07T04:03:57;-0.30;99.90
8099;DHT22;4092;47.876;9.372;2023-12-07T04:06:24;-0.30;99.90
8099;DHT22;4092;47.876;9.372;2023-12-07T04:08:53;-0.30;99.90
8099;DHT22;4092;47.876;9.372;2023-12-07T04:11:21;-0.30;99.90
8099;DHT22;4092;47.876;9.372;2023-12-07T04:13:48;-0.30;99.90
8099;DHT22;4092;47.876;9.372;2023-12-07T04:16:16;-0.40;99.90
8099;DHT22;4092;47.876;9.372;2023-12-07T04:18:43;-0.40;99.90
8099;DHT22;4092;47.876;9.372;2023-12-07T04:21:10;-0.50;99.90
8099;DHT22;4092;47.876;9.372;2023-12-07T04:23:37;-0.50;99.90
8099;DHT22;4092;47.876;9.372;2023-12-07T04:26:06;-0.60;99.90
8099;DHT22;4092;47.876;9.372;2023-12-07T04:28:33;-0.70;99.90
8099;DHT22;4092;47.876;9.372;2023-12-07T04:31:00;-0.70;99.90
8099;DHT22;4092;47.876;9.372;2023-12-07T04:33:27;-0.70;99.90
8099;DHT22;4092;47.876;9.372;2023-12-07T04:35:55;-0.80;99.90
8099;DHT22;4092;47.876;9.372;2023-12-07T04:38:22;-0.80;99.90
8099;DHT22;4092;47.876;9.372;2023-12-07T04:40:49;-0.90;99.90
8099;DHT22;4092;47.876;9.372;2023-12-07T04:43:17;-0.90;99.90
8099;DHT22;4092;47.876;9.372;2023-12-07T04:45:44;-0.90;99.90
8099;DHT22;4092;47.876;9.372;2023-12-07T04:48:11;-0.90;99.90
8099;DHT22;4092;47.876;9.372;2023-12-07T04:50:39;-0.90;99.90
8099;DHT22;4092;47.876;9.372;2023-12-07T04:53:06;-0.90;99.90
8099;DHT22;4092;47.876;9.372;2023-12-07T04:55:33;-0.90;99.90
8099;DHT22;4092;47.876;9.372;2023-12-07T04:58:00;-0.90;99.90
8099;DHT22;4092;47.876;9.372;2023-12-07T05:00:28;-0.90;99.90
8099;DHT22;4092;47.876;9.372;2023-12-07T05:02:56;-0.90;99.90
8099;DHT22;4092;47.876;9.372;2023-12-07T05:05:23;-0.80;99.90
8099;DHT22;4092;47.876;9.372;2023-12-07T05:07:50;-0.80;99.90
8099;DHT22;4092;47.876;9.372;2023-12-07T05:10:17;-0.80;99.90
8099;DHT22;4092;47.876;9.372;2023-12-07T05:12:43;-0.70;99.90
8099;DHT22;4092;47.876;9.372;2023-12-07T05:15:10;-0.70;99.90
8099;DHT22;4092;47.876;9.372;2023-12-07T05:17:38;-0.70;99.90
8099;DHT22;4092;47.876;9.372;2023-12-07T05:20:06;-0.60;99.90
8099;DHT22;4092;47.876;9.372;2023-12-07T05:22:34;-0.60;99.90
8099;DHT22;4092;47.876;9.372;2023-12-07T05:25:01;-0.60;99.90
8099;DHT22;4092;47.876;9.372;2023-12-07T05:27:28;-0.60;99.90
8099;DHT22;4092;47.876;9.372;2023-12-07T05:29:55;-0.70;99.90
8099;DHT22;4092;47.876;9.372;2023-12-07T05:32:22;-0.70;99.90
8099;DHT22;4092;47.876;9.372;2023-12-07T05:34:51;-0.70;99.90
8099;DHT22;4092;47.876;9.372;2023-12-07T05:37:18;-0.70;99.90
8099;DHT22;4092;47.876;9.372;2023-12-07T05:39:45;-0.70;99.90
8099;DHT22;4092;47.876;9.372;2023-12-07T05:42:12;-0.70;99.90
8099;DHT22;4092;47.876;9.372;2023-12-07T05:44:39;-0.70;99.90
8099;DHT22;4092;47.876;9.372;2023-12-07T05:47:08;-0.70;99.90
8099;DHT22;4092;47.876;9.372;2023-12-07T05:49:35;-0.70;99.90
8099;DHT22;4092;47.876;9.372;2023-12-07T05:52:04;-0.70;99.90
8099;DHT22;4092;47.876;9.372;2023-12-07T05:54:31;-0.70;99.90
8099;DHT22;4092;47.876;9.372;2023-12-07T05:56:58;-0.70;99.90
8099;DHT22;4092;47.876;9.372;2023-12-07T05:59:25;-0.70;99.90
8099;DHT22;4092;47.876;9.372;2023-12-07T06:01:52;-0.80;99.90
8099;DHT22;4092;47.876;9.372;2023-12-07T06:04:20;-0.80;99.90
8099;DHT22;4092;47.876;9.372;2023-12-07T06:06:47;-0.70;99.90
8099;DHT22;4092;47.876;9.372;2023-12-07T06:09:16;-0.70;99.90
8099;DHT22;4092;47.876;9.372;2023-12-07T06:11:43;-0.70;99.90
8099;DHT22;4092;47.876;9.372;2023-12-07T06:14:10;-0.70;99.90
8099;DHT22;4092;47.876;9.372;2023-12-07T06:16:37;-0.70;99.90
8099;DHT22;4092;47.876;9.372;2023-12-07T06:19:04;-0.80;99.90
8099;DHT22;4092;47.876;9.372;2023-12-07T06:21:31;-0.80;99.90
8099;DHT22;4092;47.876;9.372;2023-12-07T06:24:02;-0.80;99.90
8099;DHT22;4092;47.876;9.372;2023-12-07T06:26:31;-0.80;99.90
8099;DHT22;4092;47.876;9.372;2023-12-07T06:28:58;-0.90;99.90
8099;DHT22;4092;47.876;9.372;2023-12-07T06:31:25;-1.00;99.90
8099;DHT22;4092;47.876;9.372;2023-12-07T06:33:53;-1.00;99.90
8099;DHT22;4092;47.876;9.372;2023-12-07T06:36:21;-1.10;99.90
8099;DHT22;4092;47.876;9.372;2023-12-07T06:38:48;-1.10;99.90
8099;DHT22;4092;47.876;9.372;2023-12-07T06:41:15;-1.20;99.90
8099;DHT22;4092;47.876;9.372;2023-12-07T06:43:44;-1.20;99.90
8099;DHT22;4092;47.876;9.372;2023-12-07T06:46:12;-1.20;99.90
8099;DHT22;4092;47.876;9.372;2023-12-07T06:48:40;-1.20;99.90
8099;DHT22;4092;47.876;9.372;2023-12-07T06:51:07;-1.10;99.90
8099;DHT22;4092;47.876;9.372;2023-12-07T06:53:35;-1.10;99.90
8099;DHT22;4092;47.876;9.372;2023-12-07T06:56:02;-1.00;99.90
8099;DHT22;4092;47.876;9.372;2023-12-07T06:58:29;-1.00;99.90
8099;DHT22;4092;47.876;9.372;2023-12-07T07:00:58;-1.00;99.90
8099;DHT22;4092;47.876;9.372;2023-12-07T07:03:25;-0.90;99.90
8099;DHT22;4092;47.876;9.372;2023-12-07T07:05:53;-0.90;99.90
8099;DHT22;4092;47.876;9.372;2023-12-07T07:08:20;-0.90;99.90
8099;DHT22;4092;47.876;9.372;2023-12-07T07:10:47;-0.90;99.90
8099;DHT22;4092;47.876;9.372;2023-12-07T07:13:14;-0.80;99.90
8099;DHT22;4092;47.876;9.372;2023-12-07T07:15:42;-0.90;99.90
8099;DHT22;4092;47.876;9.372;2023-12-07T07:18:11;-0.90;99.90
8099;DHT22;4092;47.876;9.372;2023-12-07T07:20:38;-0.90;99.90
8099;DHT22;4092;47.876;9.372;2023-12-07T07:23:06;-0.90;99.90
8099;DHT22;4092;47.876;9.372;2023-12-07T07:25:34;-0.80;99.90
8099;DHT22;4092;47.876;9.372;2023-12-07T07:28:01;-0.80;99.90
8099;DHT22;4092;47.876;9.372;2023-12-07T07:30:29;-0.80;99.90
8099;DHT22;4092;47.876;9.372;2023-12-07T07:32:56;-0.70;99.90
8099;DHT22;4092;47.876;9.372;2023-12-07T07:35:24;-0.70;99.90
8099;DHT22;4092;47.876;9.372;2023-12-07T07:37:52;-0.70;99.90
8099;DHT22;4092;47.876;9.372;2023-12-07T07:40:19;-0.70;99.90
8099;DHT22;4092;47.876;9.372;2023-12-07T07:42:47;-0.60;99.90
8099;DHT22;4092;47.876;9.372;2023-12-07T07:45:14;-0.60;99.90
8099;DHT22;4092;47.876;9.372;2023-12-07T07:47:42;-0.50;99.90
8099;DHT22;4092;47.876;9.372;2023-12-07T07:50:09;-0.50;99.90
8099;DHT22;4092;47.876;9.372;2023-12-07T07:52:37;-0.40;99.90
8099;DHT22;4092;47.876;9.372;2023-12-07T07:55:06;-0.40;99.90
8099;DHT22;4092;47.876;9.372;2023-12-07T07:57:33;-0.30;99.90
8099;DHT22;4092;47.876;9.372;2023-12-07T08:00:00;-0.30;99.90
8099;DHT22;4092;47.876;9.372;2023-12-07T08:02:27;-0.20;99.90
8099;DHT22;4092;47.876;9.372;2023-12-07T08:04:54;-0.10;99.90
8099;DHT22;4092;47.876;9.372;2023-12-07T08:07:21;-0.10;99.90
8099;DHT22;4092;47.876;9.372;2023-12-07T08:09:50;0.00;99.90
8099;DHT22;4092;47.876;9.372;2023-12-07T08:12:17;0.00;99.90
8099;DHT22;4092;47.876;9.372;2023-12-07T08:14:44;0.10;99.90
8099;DHT22;4092;47.876;9.372;2023-12-07T08:17:11;0.20;99.90
8099;DHT22;4092;47.876;9.372;2023-12-07T08:19:38;0.20;99.90
8099;DHT22;4092;47.876;9.372;2023-12-07T08:22:05;0.30;99.90
8099;DHT22;4092;47.876;9.372;2023-12-07T08:24:32;0.40;99.90
8099;DHT22;4092;47.876;9.372;2023-12-07T08:27:01;0.40;99.90
8099;DHT22;4092;47.876;9.372;2023-12-07T08:29:29;0.50;99.90
8099;DHT22;4092;47.876;9.372;2023-12-07T08:31:56;0.50;99.90
8099;DHT22;4092;47.876;9.372;2023-12-07T08:34:23;0.60;99.90
8099;DHT22;4092;47.876;9.372;2023-12-07T08:36:50;0.60;99.90
8099;DHT22;4092;47.876;9.372;2023-12-07T08:39:18;0.70;99.90
8099;DHT22;4092;47.876;9.372;2023-12-07T08:41:46;0.70;99.90
8099;DHT22;4092;47.876;9.372;2023-12-07T08:44:14;0.80;99.90
8099;DHT22;4092;47.876;9.372;2023-12-07T08:46:41;0.80;99.90
8099;DHT22;4092;47.876;9.372;2023-12-07T08:49:10;0.90;99.90
8099;DHT22;4092;47.876;9.372;2023-12-07T08:51:38;1.00;99.90
8099;DHT22;4092;47.876;9.372;2023-12-07T08:54:05;1.00;99.90
8099;DHT22;4092;47.876;9.372;2023-12-07T08:56:32;1.00;99.90
8099;DHT22;4092;47.876;9.372;2023-12-07T08:58:59;1.00;99.90
8099;DHT22;4092;47.876;9.372;2023-12-07T09:01:28;1.00;99.90
8099;DHT22;4092;47.876;9.372;2023-12-07T09:03:56;1.10;99.90
8099;DHT22;4092;47.876;9.372;2023-12-07T09:06:23;1.20;99.90
8099;DHT22;4092;47.876;9.372;2023-12-07T09:08:50;1.20;99.90
8099;DHT22;4092;47.876;9.372;2023-12-07T09:11:18;1.30;99.90
8099;DHT22;4092;47.876;9.372;2023-12-07T09:13:45;1.30;99.90
8099;DHT22;4092;47.876;9.372;2023-12-07T09:16:12;1.40;99.90
8099;DHT22;4092;47.876;9.372;2023-12-07T09:18:42;1.40;99.90
8099;DHT22;4092;47.876;9.372;2023-12-07T09:21:11;1.40;99.90
8099;DHT22;4092;47.876;9.372;2023-12-07T09:23:37;1.50;99.90
8099;DHT22;4092;47.876;9.372;2023-12-07T09:26:04;1.50;99.90
8099;DHT22;4092;47.876;9.372;2023-12-07T09:28:32;1.60;99.90
8099;DHT22;4092;47.876;9.372;2023-12-07T09:30:59;1.70;99.90
8099;DHT22;4092;47.876;9.372;2023-12-07T09:33:26;1.80;99.90
8099;DHT22;4092;47.876;9.372;2023-12-07T09:35:55;2.00;99.90
8099;DHT22;4092;47.876;9.372;2023-12-07T09:38:22;2.00;99.90
8099;DHT22;4092;47.876;9.372;2023-12-07T09:40:52;2.10;99.90
8099;DHT22;4092;47.876;9.372;2023-12-07T09:43:20;2.20;99.90
8099;DHT22;4092;47.876;9.372;2023-12-07T09:45:47;2.30;99.90
8099;DHT22;4092;47.876;9.372;2023-12-07T09:48:17;2.30;99.90
8099;DHT22;4092;47.876;9.372;2023-12-07T09:50:44;2.30;99.90
8099;DHT22;4092;47.876;9.372;2023-12-07T09:53:13;2.30;99.90
8099;DHT22;4092;47.876;9.372;2023-12-07T09:55:40;2.30;99.90
8099;DHT22;4092;47.876;9.372;2023-12-07T09:58:07;2.30;99.90
8099;DHT22;4092;47.876;9.372;2023-12-07T10:00:35;2.30;99.90
8099;DHT22;4092;47.876;9.372;2023-12-07T10:03:02;2.30;99.90
8099;DHT22;4092;47.876;9.372;2023-12-07T10:05:33;2.30;99.90
8099;DHT22;4092;47.876;9.372;2023-12-07T10:08:00;2.40;99.90
8099;DHT22;4092;47.876;9.372;2023-12-07T10:10:30;2.50;99.90
8099;DHT22;4092;47.876;9.372;2023-12-07T10:13:01;2.60;99.90
8099;DHT22;4092;47.876;9.372;2023-12-07T10:15:29;2.60;99.90
8099;DHT22;4092;47.876;9.372;2023-12-07T10:17:58;2.70;99.90
8099;DHT22;4092;47.876;9.372;2023-12-07T10:20:27;2.80;99.90
8099;DHT22;4092;47.876;9.372;2023-12-07T10:23:02;2.80;99.90
8099;DHT22;4092;47.876;9.372;2023-12-07T10:25:31;2.80;99.90
8099;DHT22;4092;47.876;9.372;2023-12-07T10:28:00;2.90;99.90
8099;DHT22;4092;47.876;9.372;2023-12-07T10:30:33;2.90;99.90
8099;DHT22;4092;47.876;9.372;2023-12-07T10:33:03;3.00;99.90
8099;DHT22;4092;47.876;9.372;2023-12-07T10:35:37;3.00;99.90
8099;DHT22;4092;47.876;9.372;2023-12-07T10:38:05;3.10;99.90
8099;DHT22;4092;47.876;9.372;2023-12-07T10:40:33;3.20;99.90
8099;DHT22;4092;47.876;9.372;2023-12-07T10:43:05;3.30;99.90
8099;DHT22;4092;47.876;9.372;2023-12-07T10:45:32;3.30;99.90
8099;DHT22;4092;47.876;9.372;2023-12-07T10:48:03;3.30;99.90
8099;DHT22;4092;47.876;9.372;2023-12-07T10:50:35;3.50;99.90
8099;DHT22;4092;47.876;9.372;2023-12-07T10:53:09;3.50;99.90
8099;DHT22;4092;47.876;9.372;2023-12-07T10:55:42;3.50;99.90
8099;DHT22;4092;47.876;9.372;2023-12-07T10:58:14;3.60;99.90
8099;DHT22;4092;47.876;9.372;2023-12-07T11:00:43;3.70;99.90
8099;DHT22;4092;47.876;9.372;2023-12-07T11:03:14;3.80;99.90
8099;DHT22;4092;47.876;9.372;2023-12-07T11:05:48;3.90;99.90
8099;DHT22;4092;47.876;9.372;2023-12-07T11:08:21;4.00;99.90
8099;DHT22;4092;47.876;9.372;2023-12-07T11:11:00;4.00;99.90
8099;DHT22;4092;47.876;9.372;2023-12-07T11:13:30;4.20;99.90
8099;DHT22;4092;47.876;9.372;2023-12-07T11:15:58;4.30;99.90
8099;DHT22;4092;47.876;9.372;2023-12-07T11:18:25;4.40;99.90
8099;DHT22;4092;47.876;9.372;2023-12-07T11:20:55;4.60;99.90
8099;DHT22;4092;47.876;9.372;2023-12-07T11:23:23;4.60;99.90
8099;DHT22;4092;47.876;9.372;2023-12-07T11:25:53;4.60;99.90
8099;DHT22;4092;47.876;9.372;2023-12-07T11:28:34;4.70;99.90
8099;DHT22;4092;47.876;9.372;2023-12-07T11:31:07;4.70;99.90
8099;DHT22;4092;47.876;9.372;2023-12-07T11:33:37;4.80;99.90
8099;DHT22;4092;47.876;9.372;2023-12-07T11:36:06;4.90;99.90
8099;DHT22;4092;47.876;9.372;2023-12-07T11:38:38;4.90;99.90
8099;DHT22;4092;47.876;9.372;2023-12-07T11:41:06;5.00;99.90
8099;DHT22;4092;47.876;9.372;2023-12-07T11:43:40;5.10;99.90
8099;DHT22;4092;47.876;9.372;2023-12-07T11:46:09;5.10;99.90
8099;DHT22;4092;47.876;9.372;2023-12-07T11:48:39;5.20;99.90
8099;DHT22;4092;47.876;9.372;2023-12-07T11:51:12;5.40;99.90
8099;DHT22;4092;47.876;9.372;2023-12-07T11:53:40;5.40;99.90
8099;DHT22;4092;47.876;9.372;2023-12-07T11:56:11;5.40;99.90
8099;DHT22;4092;47.876;9.372;2023-12-07T11:58:42;5.30;99.90
8099;DHT22;4092;47.876;9.372;2023-12-07T12:01:11;5.20;99.90
8099;DHT22;4092;47.876;9.372;2023-12-07T12:03:37;5.20;99.90
8099;DHT22;4092;47.876;9.372;2023-12-07T12:06:07;5.20;99.90
8099;DHT22;4092;47.876;9.372;2023-12-07T12:08:36;5.20;99.90
8099;DHT22;4092;47.876;9.372;2023-12-07T12:11:04;5.20;99.90
8099;DHT22;4092;47.876;9.372;2023-12-07T12:13:36;5.30;99.90
8099;DHT22;4092;47.876;9.372;2023-12-07T12:16:04;5.40;99.90
8099;DHT22;4092;47.876;9.372;2023-12-07T12:18:33;5.40;99.90
8099;DHT22;4092;47.876;9.372;2023-12-07T12:21:03;5.50;99.90
8099;DHT22;4092;47.876;9.372;2023-12-07T12:23:38;5.50;99.90
8099;DHT22;4092;47.876;9.372;2023-12-07T12:26:08;5.60;99.90
8099;DHT22;4092;47.876;9.372;2023-12-07T12:28:39;5.60;99.90
8099;DHT22;4092;47.876;9.372;2023-12-07T12:31:09;5.50;99.90
8099;DHT22;4092;47.876;9.372;2023-12-07T12:33:38;5.50;99.90
8099;DHT22;4092;47.876;9.372;2023-12-07T12:36:07;5.40;99.90
8099;DHT22;4092;47.876;9.372;2023-12-07T12:38:36;5.30;99.90
8099;DHT22;4092;47.876;9.372;2023-12-07T12:41:06;5.20;99.90
8099;DHT22;4092;47.876;9.372;2023-12-07T12:43:40;5.20;99.90
8099;DHT22;4092;47.876;9.372;2023-12-07T12:46:13;5.00;99.90
8099;DHT22;4092;47.876;9.372;2023-12-07T12:48:53;4.90;99.90
8099;DHT22;4092;47.876;9.372;2023-12-07T12:51:24;4.80;99.90
8099;DHT22;4092;47.876;9.372;2023-12-07T12:53:54;4.80;99.90
8099;DHT22;4092;47.876;9.372;2023-12-07T12:56:22;4.70;99.90
8099;DHT22;4092;47.876;9.372;2023-12-07T12:58:51;4.70;99.90
8099;DHT22;4092;47.876;9.372;2023-12-07T13:01:19;4.70;99.90
8099;DHT22;4092;47.876;9.372;2023-12-07T13:03:46;4.70;99.90
8099;DHT22;4092;47.876;9.372;2023-12-07T13:06:15;4.70;99.90
8099;DHT22;4092;47.876;9.372;2023-12-07T13:08:44;4.70;99.90
8099;DHT22;4092;47.876;9.372;2023-12-07T13:11:15;4.60;99.90
8099;DHT22;4092;47.876;9.372;2023-12-07T13:13:42;4.60;99.90
8099;DHT22;4092;47.876;9.372;2023-12-07T13:16:10;4.60;99.90
8099;DHT22;4092;47.876;9.372;2023-12-07T13:18:38;4.60;99.90
8099;DHT22;4092;47.876;9.372;2023-12-07T13:21:05;4.70;99.90
8099;DHT22;4092;47.876;9.372;2023-12-07T13:23:32;4.60;99.90
8099;DHT22;4092;47.876;9.372;2023-12-07T13:25:59;4.60;99.90
8099;DHT22;4092;47.876;9.372;2023-12-07T13:28:26;4.60;99.90
8099;DHT22;4092;47.876;9.372;2023-12-07T13:30:53;4.70;99.90
8099;DHT22;4092;47.876;9.372;2023-12-07T13:33:22;4.70;99.90
8099;DHT22;4092;47.876;9.372;2023-12-07T13:35:49;4.70;99.90
8099;DHT22;4092;47.876;9.372;2023-12-07T13:38:17;4.80;99.90
8099;DHT22;4092;47.876;9.372;2023-12-07T13:40:45;4.90;99.90
8099;DHT22;4092;47.876;9.372;2023-12-07T13:43:12;4.90;99.90
8099;DHT22;4092;47.876;9.372;2023-12-07T13:45:41;4.90;99.90
8099;DHT22;4092;47.876;9.372;2023-12-07T13:48:08;4.90;99.90
8099;DHT22;4092;47.876;9.372;2023-12-07T13:50:36;4.90;99.90
8099;DHT22;4092;47.876;9.372;2023-12-07T13:53:03;4.80;99.90
8099;DHT22;4092;47.876;9.372;2023-12-07T13:55:30;4.80;99.90
8099;DHT22;4092;47.876;9.372;2023-12-07T13:57:57;4.80;99.90
8099;DHT22;4092;47.876;9.372;2023-12-07T14:00:25;4.80;99.90
8099;DHT22;4092;47.876;9.372;2023-12-07T14:02:55;4.80;99.90
8099;DHT22;4092;47.876;9.372;2023-12-07T14:05:24;4.90;99.90
8099;DHT22;4092;47.876;9.372;2023-12-07T14:07:56;5.10;99.90
8099;DHT22;4092;47.876;9.372;2023-12-07T14:10:24;5.20;99.90
8099;DHT22;4092;47.876;9.372;2023-12-07T14:12:52;5.30;99.90
8099;DHT22;4092;47.876;9.372;2023-12-07T14:15:28;5.20;99.90
8099;DHT22;4092;47.876;9.372;2023-12-07T14:17:59;5.10;99.90
8099;DHT22;4092;47.876;9.372;2023-12-07T14:20:26;4.90;99.90
8099;DHT22;4092;47.876;9.372;2023-12-07T14:22:56;4.80;99.90
8099;DHT22;4092;47.876;9.372;2023-12-07T14:25:29;4.70;99.90
8099;DHT22;4092;47.876;9.372;2023-12-07T14:27:56;4.60;99.90
8099;DHT22;4092;47.876;9.372;2023-12-07T14:30:24;4.60;99.90
8099;DHT22;4092;47.876;9.372;2023-12-07T14:32:51;4.50;99.90
8099;DHT22;4092;47.876;9.372;2023-12-07T14:35:18;4.40;99.90
8099;DHT22;4092;47.876;9.372;2023-12-07T14:37:45;4.30;99.90
8099;DHT22;4092;47.876;9.372;2023-12-07T14:40:14;4.20;99.90
8099;DHT22;4092;47.876;9.372;2023-12-07T14:42:42;4.00;99.90
8099;DHT22;4092;47.876;9.372;2023-12-07T14:45:11;3.80;99.90
8099;DHT22;4092;47.876;9.372;2023-12-07T14:47:42;3.60;99.90
8099;DHT22;4092;47.876;9.372;2023-12-07T14:50:10;3.50;99.90
8099;DHT22;4092;47.876;9.372;2023-12-07T14:52:38;3.40;99.90
8099;DHT22;4092;47.876;9.372;2023-12-07T14:55:06;3.30;99.90
8099;DHT22;4092;47.876;9.372;2023-12-07T14:57:36;3.10;99.90
8099;DHT22;4092;47.876;9.372;2023-12-07T15:00:04;3.00;99.90
8099;DHT22;4092;47.876;9.372;2023-12-07T15:02:32;2.90;99.90
8099;DHT22;4092;47.876;9.372;2023-12-07T15:05:00;2.80;99.90
8099;DHT22;4092;47.876;9.372;2023-12-07T15:07:27;2.70;99.90
8099;DHT22;4092;47.876;9.372;2023-12-07T15:09:54;2.70;99.90
8099;DHT22;4092;47.876;9.372;2023-12-07T15:12:23;2.50;99.90
8099;DHT22;4092;47.876;9.372;2023-12-07T15:14:52;2.40;99.90
8099;DHT22;4092;47.876;9.372;2023-12-07T15:17:20;2.30;99.90
8099;DHT22;4092;47.876;9.372;2023-12-07T15:19:47;2.20;99.90
8099;DHT22;4092;47.876;9.372;2023-12-07T15:22:14;2.10;99.90
8099;DHT22;4092;47.876;9.372;2023-12-07T15:24:41;2.10;99.90
8099;DHT22;4092;47.876;9.372;2023-12-07T15:27:10;2.00;99.90
8099;DHT22;4092;47.876;9.372;2023-12-07T15:29:38;1.80;99.90
8099;DHT22;4092;47.876;9.372;2023-12-07T15:32:08;1.70;99.90
8099;DHT22;4092;47.876;9.372;2023-12-07T15:34:36;1.60;99.90
8099;DHT22;4092;47.876;9.372;2023-12-07T15:37:04;1.60;99.90
8099;DHT22;4092;47.876;9.372;2023-12-07T15:39:31;1.50;99.90
8099;DHT22;4092;47.876;9.372;2023-12-07T15:41:59;1.40;99.90
8099;DHT22;4092;47.876;9.372;2023-12-07T15:44:26;1.30;99.90
8099;DHT22;4092;47.876;9.372;2023-12-07T15:46:54;1.20;99.90
8099;DHT22;4092;47.876;9.372;2023-12-07T15:49:22;1.20;99.90
8099;DHT22;4092;47.876;9.372;2023-12-07T15:51:49;1.10;99.90
8099;DHT22;4092;47.876;9.372;2023-12-07T15:54:17;1.00;99.90
8099;DHT22;4092;47.876;9.372;2023-12-07T15:56:44;1.00;99.90
8099;DHT22;4092;47.876;9.372;2023-12-07T15:59:11;1.00;99.90
8099;DHT22;4092;47.876;9.372;2023-12-07T16:01:38;0.90;99.90
8099;DHT22;4092;47.876;9.372;2023-12-07T16:04:05;0.90;99.90
8099;DHT22;4092;47.876;9.372;2023-12-07T16:06:33;0.80;99.90
8099;DHT22;4092;47.876;9.372;2023-12-07T16:09:00;0.80;99.90
8099;DHT22;4092;47.876;9.372;2023-12-07T16:11:27;0.80;99.90
8099;DHT22;4092;47.876;9.372;2023-12-07T16:13:54;0.70;99.90
8099;DHT22;4092;47.876;9.372;2023-12-07T16:16:21;0.70;99.90
8099;DHT22;4092;47.876;9.372;2023-12-07T16:18:48;0.90;99.90